Time;durP1;ratioP1;P1;durP2;ratioP2;P2;SDS_P1;SDS_P2;PMS_P1;PMS_P2;Temp;Humidity;BMP_temperature;BMP_pressure;BME280_temperature;BME280_humidity;BME280_pressure;Samples;Min_cycle;Max_cycle;Signal;HPM_P1;HPM_P2
2023/07/11 00:00:19;;;;;;;5.80;3.97;;;;;;;-145.41;100.00;58600.66;4983852;28;20410;-75
2023/07/11 00:02:46;;;;;;;5.90;4.20;;;;;;;-145.41;100.00;58600.66;4988075;28;20046;-75
2023/07/11 00:05:13;;;;;;;6.20;3.80;;;;;;;-145.41;100.00;58600.66;4989515;28;20489;-75
2023/07/11 00:07:38;;;;;;;7.65;3.40;;;;;;;-145.41;100.00;58600.66;4986863;28;20041;-75
2023/07/11 00:10:04;;;;;;;5.38;4.05;;;;;;;-145.41;100.00;58600.66;4985073;28;20030;-75
2023/07/11 00:12:30;;;;;;;5.15;3.85;;;;;;;-145.41;100.00;58600.66;4986512;28;20065;-75
2023/07/11 00:14:56;;;;;;;5.68;4.15;;;;;;;-145.41;100.00;58600.66;4990245;28;20113;-75
2023/07/11 00:17:22;;;;;;;7.38;4.30;;;;;;;-145.41;100.00;58600.66;4985873;28;20035;-74
2023/07/11 00:19:50;;;;;;;6.90;4.45;;;;;;;-145.41;100.00;58600.66;4986513;28;20042;-75
2023/07/11 00:22:16;;;;;;;5.57;4.10;;;;;;;-145.41;100.00;58600.66;4989165;28;20034;-75
2023/07/11 00:24:41;;;;;;;6.20;4.10;;;;;;;-145.41;100.00;58600.66;4987663;28;20114;-75
2023/07/11 00:27:07;;;;;;;6.70;4.88;;;;;;;-145.41;100.00;58600.66;4987559;28;20050;-75
2023/07/11 00:29:32;;;;;;;5.78;4.50;;;;;;;-145.41;100.00;58600.66;4989672;28;20041;-74
2023/07/11 00:31:59;;;;;;;5.72;4.57;;;;;;;-145.41;100.00;58600.66;4986408;28;20125;-74
2023/07/11 00:34:25;;;;;;;8.13;4.28;;;;;;;-145.41;100.00;58600.66;4987442;28;20153;-74
2023/07/11 00:36:50;;;;;;;6.82;5.15;;;;;;;-145.41;100.00;58600.66;4987459;28;20125;-74
2023/07/11 00:39:19;;;;;;;6.07;4.30;;;;;;;-145.41;100.00;58600.66;4984015;28;20322;-75
2023/07/11 00:41:44;;;;;;;6.25;4.35;;;;;;;-145.41;100.00;58600.66;4987729;28;20386;-74
2023/07/11 00:44:15;;;;;;;6.43;4.43;;;;;;;-145.41;100.00;58600.66;4988101;28;20107;-74
2023/07/11 00:46:41;;;;;;;5.53;4.07;;;;;;;-145.41;100.00;58600.66;4989084;28;20181;-74
2023/07/11 00:49:08;;;;;;;6.10;4.25;;;;;;;-145.41;100.00;58600.66;4993708;28;20049;-74
2023/07/11 00:51:46;;;;;;;6.07;4.05;;;;;;;-145.41;100.00;58600.66;4992551;28;20043;-75
2023/07/11 00:54:17;;;;;;;8.65;4.18;;;;;;;-145.41;100.00;58600.66;4990472;28;20026;-75
2023/07/11 00:56:47;;;;;;;6.40;4.45;;;;;;;-145.41;100.00;58600.66;4988466;28;20045;-74
2023/07/11 00:59:16;;;;;;;6.10;4.55;;;;;;;-145.41;100.00;58600.66;4992954;28;20037;-74
2023/07/11 01:01:46;;;;;;;7.03;4.75;;;;;;;-145.41;100.00;58600.66;4988229;28;20134;-75
2023/07/11 01:04:14;;;;;;;7.88;5.30;;;;;;;-145.41;100.00;58600.66;4986654;28;20030;-74
2023/07/11 01:06:40;;;;;;;8.57;5.80;;;;;;;-145.41;100.00;58600.66;4992214;28;20133;-74
2023/07/11 01:09:05;;;;;;;7.55;4.97;;;;;;;-145.41;100.00;58600.66;4987013;28;20512;-75
2023/07/11 01:11:50;;;;;;;7.65;5.78;;;;;;;-145.41;100.00;58600.66;4987410;28;20130;-74
2023/07/11 01:14:17;;;;;;;7.85;4.78;;;;;;;-145.41;100.00;58600.66;5000637;28;20413;-74
2023/07/11 01:16:43;;;;;;;6.75;5.18;;;;;;;-145.41;100.00;58600.66;4988850;28;20038;-74
2023/07/11 01:19:09;;;;;;;5.95;4.82;;;;;;;-145.41;100.00;58600.66;4991804;28;20049;-75
2023/07/11 01:21:34;;;;;;;9.00;4.47;;;;;;;-145.41;100.00;58600.66;4994587;28;20046;-75
2023/07/11 01:23:59;;;;;;;7.53;4.85;;;;;;;-145.41;100.00;58600.66;4988158;28;20045;-75
2023/07/11 01:26:25;;;;;;;6.43;4.50;;;;;;;-145.41;100.00;58600.66;4993019;28;20034;-75
2023/07/11 01:28:50;;;;;;;6.78;4.55;;;;;;;-145.41;100.00;58600.66;4990629;28;20051;-74
2023/07/11 01:31:15;;;;;;;7.57;5.43;;;;;;;-145.41;100.00;58600.66;4988767;28;20031;-75
2023/07/11 01:33:41;;;;;;;8.15;5.60;;;;;;;-145.41;100.00;58600.66;4990143;28;20093;-75
2023/07/11 01:36:08;;;;;;;8.02;6.07;;;;;;;-145.41;100.00;58600.66;4994146;28;20394;-74
2023/07/11 01:38:34;;;;;;;8.15;5.80;;;;;;;-145.41;100.00;58600.66;4987181;28;20042;-75
2023/07/11 01:41:00;;;;;;;9.43;5.95;;;;;;;-145.41;100.00;58600.66;4985995;28;20030;-75
2023/07/11 01:43:26;;;;;;;6.80;5.20;;;;;;;-145.41;100.00;58600.66;4989227;28;20064;-75
2023/07/11 01:45:51;;;;;;;8.50;5.35;;;;;;;-145.41;100.00;58600.66;4989499;28;20042;-74
2023/07/11 01:48:16;;;;;;;6.70;4.53;;;;;;;-145.41;100.00;58600.66;4988239;28;20046;-75
2023/07/11 01:50:42;;;;;;;6.18;4.25;;;;;;;-145.41;100.00;58600.66;4984681;28;20038;-75
2023/07/11 01:53:07;;;;;;;7.05;5.43;;;;;;;-145.41;100.00;58600.66;4991966;28;20105;-75
2023/07/11 01:55:32;;;;;;;6.80;5.63;;;;;;;-145.41;100.00;58600.66;4991260;28;20118;-74
2023/07/11 01:57:58;;;;;;;7.15;5.65;;;;;;;-145.41;100.00;58600.66;4989025;28;20181;-75
2023/07/11 02:00:23;;;;;;;7.25;5.20;;;;;;;-145.41;100.00;58600.66;4985663;28;20042;-75
2023/07/11 02:02:51;;;;;;;6.35;4.70;;;;;;;-145.41;100.00;58600.66;4990450;28;20034;-75
2023/07/11 02:05:19;;;;;;;7.32;3.72;;;;;;;-145.41;100.00;58600.66;4988899;28;20386;-74
2023/07/11 02:07:45;;;;;;;7.88;4.38;;;;;;;-145.41;100.00;58600.66;4991311;28;20030;-74
2023/07/11 02:10:10;;;;;;;5.30;3.63;;;;;;;-145.41;100.00;58600.66;4989147;28;20568;-74
2023/07/11 02:12:35;;;;;;;5.20;3.92;;;;;;;-145.41;100.00;58600.66;4985438;28;20033;-75
2023/07/11 02:15:01;;;;;;;3.92;2.90;;;;;;;-145.41;100.00;58600.66;4974674;28;20053;-74
2023/07/11 02:17:26;;;;;;;5.50;3.22;;;;;;;-145.41;100.00;58600.66;4988055;28;20046;-75
2023/07/11 02:19:51;;;;;;;5.40;3.65;;;;;;;-145.41;100.00;58600.66;4989051;28;20034;-74
2023/07/11 02:22:17;;;;;;;5.85;3.88;;;;;;;-145.41;100.00;58600.66;4991796;28;20053;-75
2023/07/11 02:24:45;;;;;;;6.35;4.35;;;;;;;-145.41;100.00;58600.66;4992239;28;20038;-75
2023/07/11 02:27:10;;;;;;;8.43;5.32;;;;;;;-145.41;100.00;58600.66;4990005;28;20048;-75
2023/07/11 02:29:35;;;;;;;8.40;5.35;;;;;;;-145.41;100.00;58600.66;4988937;28;20041;-74
2023/07/11 02:32:01;;;;;;;6.18;4.47;;;;;;;-145.41;100.00;58600.66;4992658;28;20038;-74
2023/07/11 02:34:26;;;;;;;5.18;3.97;;;;;;;-145.41;100.00;58600.66;4992387;28;20034;-75
2023/07/11 02:36:52;;;;;;;5.20;4.13;;;;;;;-145.41;100.00;58600.66;4993467;28;20084;-75
2023/07/11 02:39:17;;;;;;;6.03;4.63;;;;;;;-145.41;100.00;58600.66;4992066;28;20500;-75
2023/07/11 02:41:43;;;;;;;8.52;5.43;;;;;;;-145.41;100.00;58600.66;4992595;28;20033;-75
2023/07/11 02:44:08;;;;;;;6.72;5.47;;;;;;;-145.41;100.00;58600.66;4992848;28;20022;-75
2023/07/11 02:46:34;;;;;;;6.70;4.85;;;;;;;-145.41;100.00;58600.66;4992904;28;20516;-75
2023/07/11 02:49:00;;;;;;;6.18;4.90;;;;;;;-145.41;100.00;58600.66;4992178;28;20073;-74
2023/07/11 02:51:25;;;;;;;5.75;4.53;;;;;;;-145.41;100.00;58600.66;4989420;28;20530;-75
2023/07/11 02:53:51;;;;;;;6.78;4.63;;;;;;;-145.41;100.00;58600.66;4992134;28;20043;-74
2023/07/11 02:56:19;;;;;;;8.98;5.15;;;;;;;-145.41;100.00;58600.66;4992919;28;20057;-75
2023/07/11 02:58:45;;;;;;;7.30;5.90;;;;;;;-145.41;100.00;58600.66;4988636;28;20091;-74
2023/07/11 03:01:10;;;;;;;9.95;6.90;;;;;;;-145.41;100.00;58600.66;4988209;28;20030;-75
2023/07/11 03:03:36;;;;;;;8.82;6.88;;;;;;;-145.41;100.00;58600.66;4991943;28;20038;-75
2023/07/11 03:06:01;;;;;;;8.02;5.60;;;;;;;-145.41;100.00;58600.66;4991944;28;20090;-75
2023/07/11 03:08:27;;;;;;;6.97;4.55;;;;;;;-145.41;100.00;58600.66;4992417;28;20034;-75
2023/07/11 03:10:56;;;;;;;6.05;4.13;;;;;;;-145.41;100.00;58600.66;4988125;28;20528;-74
2023/07/11 03:13:22;;;;;;;6.00;4.05;;;;;;;-145.41;100.00;58600.66;4991404;28;20655;-75
2023/07/11 03:15:47;;;;;;;6.72;5.00;;;;;;;-145.41;100.00;58600.66;4991138;28;20030;-75
2023/07/11 03:18:13;;;;;;;7.50;5.80;;;;;;;-145.41;100.00;58600.66;4989835;28;20445;-75
2023/07/11 03:20:41;;;;;;;6.65;5.40;;;;;;;-145.41;100.00;58600.66;4989976;28;20384;-75
2023/07/11 03:23:08;;;;;;;5.75;4.72;;;;;;;-145.41;100.00;58600.66;4992429;28;20116;-74
2023/07/11 03:25:35;;;;;;;5.93;4.70;;;;;;;-145.41;100.00;58600.66;4991427;28;20030;-75
2023/07/11 03:28:00;;;;;;;7.35;5.20;;;;;;;-145.41;100.00;58600.66;4990735;28;20031;-75
2023/07/11 03:30:26;;;;;;;7.85;5.60;;;;;;;-145.41;100.00;58600.66;4989697;28;20097;-75
2023/07/11 03:32:51;;;;;;;8.48;6.43;;;;;;;-145.41;100.00;58600.66;4992272;28;20382;-75
2023/07/11 03:35:16;;;;;;;8.77;6.18;;;;;;;-145.41;100.00;58600.66;4991797;28;20100;-75
2023/07/11 03:37:42;;;;;;;11.00;6.47;;;;;;;-145.41;100.00;58600.66;4992160;28;20113;-75
2023/07/11 03:40:08;;;;;;;8.68;6.72;;;;;;;-145.41;100.00;58600.66;4991376;28;20030;-75
2023/07/11 03:42:33;;;;;;;7.32;5.18;;;;;;;-145.41;100.00;58600.66;4992155;28;20030;-75
2023/07/11 03:44:59;;;;;;;7.53;4.60;;;;;;;-145.41;100.00;58600.66;4991921;28;20469;-74
2023/07/11 03:47:24;;;;;;;6.32;5.13;;;;;;;-145.41;100.00;58600.66;4991619;28;20502;-75
2023/07/11 03:49:49;;;;;;;6.90;5.70;;;;;;;-145.41;100.00;58600.66;4973982;28;20386;-75
2023/07/11 03:52:15;;;;;;;10.18;8.20;;;;;;;-145.41;100.00;58600.66;4991946;28;20034;-75
2023/07/11 03:54:40;;;;;;;8.13;5.65;;;;;;;-145.41;100.00;58600.66;4991968;28;20034;-75
2023/07/11 03:57:05;;;;;;;8.82;7.13;;;;;;;-145.41;100.00;58600.66;4991916;28;20042;-75
2023/07/11 03:59:31;;;;;;;8.15;5.97;;;;;;;-145.41;100.00;58600.66;4991011;28;20045;-75
2023/07/11 04:01:56;;;;;;;7.32;5.13;;;;;;;-145.41;100.00;58600.66;4990337;28;20061;-75
2023/07/11 04:04:22;;;;;;;6.75;5.18;;;;;;;-145.41;100.00;58600.66;4991559;28;20426;-75
2023/07/11 04:06:47;;;;;;;9.30;6.05;;;;;;;-145.41;100.00;58600.66;4991732;28;20450;-75
2023/07/11 04:09:12;;;;;;;8.27;4.90;;;;;;;-145.41;100.00;58600.66;4990313;28;20030;-75
2023/07/11 04:11:38;;;;;;;7.22;5.15;;;;;;;-145.41;100.00;58600.66;4992791;28;20065;-76
2023/07/11 04:14:03;;;;;;;9.23;5.82;;;;;;;-145.41;100.00;58600.66;4982594;28;20042;-76
2023/07/11 04:16:28;;;;;;;8.15;6.30;;;;;;;-145.41;100.00;58600.66;4991304;28;20038;-75
2023/07/11 04:18:54;;;;;;;12.65;7.22;;;;;;;-145.41;100.00;58600.66;4990416;28;20096;-75
2023/07/11 04:21:19;;;;;;;7.55;6.03;;;;;;;-145.41;100.00;58600.66;4990860;28;20043;-76
2023/07/11 04:23:44;;;;;;;8.05;6.25;;;;;;;-145.41;100.00;58600.66;4991227;28;20042;-75
2023/07/11 04:26:10;;;;;;;9.10;6.22;;;;;;;-145.41;100.00;58600.66;4991084;28;20034;-75
2023/07/11 04:28:35;;;;;;;14.15;11.13;;;;;;;-145.41;100.00;58600.66;4991112;28;20042;-76
2023/07/11 04:31:01;;;;;;;10.07;7.38;;;;;;;-145.41;100.00;58600.66;4988446;28;20038;-76
2023/07/11 04:33:27;;;;;;;8.65;7.05;;;;;;;-145.41;100.00;58600.66;4991132;28;20030;-75
2023/07/11 04:35:52;;;;;;;9.57;6.22;;;;;;;-145.41;100.00;58600.66;4991084;28;20401;-75
2023/07/11 04:38:17;;;;;;;8.35;6.82;;;;;;;-145.41;100.00;58600.66;4991415;28;20054;-76
2023/07/11 04:40:43;;;;;;;8.88;6.72;;;;;;;-145.41;100.00;58600.66;4992232;28;20046;-78
2023/07/11 04:43:08;;;;;;;7.88;6.88;;;;;;;-145.41;100.00;58600.66;4991040;28;20037;-77
2023/07/11 04:45:34;;;;;;;12.90;7.15;;;;;;;-145.41;100.00;58600.66;4993204;28;20045;-77
2023/07/11 04:48:03;;;;;;;13.25;7.97;;;;;;;-145.41;100.00;58600.66;4995663;28;20120;-78
2023/07/11 04:50:29;;;;;;;10.18;7.65;;;;;;;-145.41;100.00;58600.66;4994582;28;20048;-77
2023/07/11 04:52:54;;;;;;;9.25;7.25;;;;;;;-145.41;100.00;58600.66;4995717;28;20404;-76
2023/07/11 04:55:20;;;;;;;11.60;6.43;;;;;;;-145.41;100.00;58600.66;4991399;28;20113;-77
2023/07/11 04:57:45;;;;;;;9.25;6.78;;;;;;;-145.41;100.00;58600.66;4991887;28;20030;-77
2023/07/11 05:00:11;;;;;;;8.82;6.15;;;;;;;-145.41;100.00;58600.66;4990493;28;20046;-77
2023/07/11 05:02:37;;;;;;;9.57;7.15;;;;;;;-145.41;100.00;58600.66;4991179;28;20081;-77
2023/07/11 05:05:02;;;;;;;11.55;8.13;;;;;;;-145.41;100.00;58600.66;4991307;28;20034;-77
2023/07/11 05:07:28;;;;;;;12.38;8.38;;;;;;;-145.41;100.00;58600.66;4989089;28;20041;-77
2023/07/11 05:09:53;;;;;;;11.23;8.55;;;;;;;-145.41;100.00;58600.66;4990611;28;20040;-77
2023/07/11 05:12:18;;;;;;;10.20;7.85;;;;;;;-145.41;100.00;58600.66;4991031;28;20026;-77
2023/07/11 05:14:44;;;;;;;10.85;7.57;;;;;;;-145.41;100.00;58600.66;4991164;28;20100;-77
2023/07/11 05:17:09;;;;;;;9.80;8.43;;;;;;;-145.41;100.00;58600.66;4991402;28;20095;-76
2023/07/11 05:19:34;;;;;;;8.38;7.00;;;;;;;-145.41;100.00;58600.66;4989129;28;20038;-77
2023/07/11 05:22:00;;;;;;;9.98;7.53;;;;;;;-145.41;100.00;58600.66;4991897;28;20066;-77
2023/07/11 05:24:25;;;;;;;9.27;5.78;;;;;;;-145.41;100.00;58600.66;4991553;28;20125;-77
2023/07/11 05:26:50;;;;;;;8.15;5.40;;;;;;;-145.41;100.00;58600.66;4991537;28;20046;-77
2023/07/11 05:29:16;;;;;;;7.85;5.80;;;;;;;-145.41;100.00;58600.66;4991349;28;20042;-77
2023/07/11 05:31:42;;;;;;;9.77;7.32;;;;;;;-145.41;100.00;58600.66;4991580;28;20045;-77
2023/07/11 05:34:10;;;;;;;10.82;8.13;;;;;;;-145.41;100.00;58600.66;4993203;28;20026;-77
2023/07/11 05:36:36;;;;;;;9.05;6.40;;;;;;;-145.41;100.00;58600.66;4995315;28;20046;-76
2023/07/11 05:39:27;;;;;;;10.82;6.68;;;;;;;-145.41;100.00;58600.66;4994604;28;20041;-77
2023/07/11 05:41:53;;;;;;;10.38;6.63;;;;;;;-145.41;100.00;58600.66;4991084;28;20038;-77
2023/07/11 05:44:18;;;;;;;10.90;6.30;;;;;;;-145.41;100.00;58600.66;4990467;28;20026;-77
2023/07/11 05:46:44;;;;;;;9.02;6.80;;;;;;;-145.41;100.00;58600.66;4998960;28;20038;-76
2023/07/11 05:49:09;;;;;;;8.57;5.25;;;;;;;-145.41;100.00;58600.66;4992871;28;20037;-77
2023/07/11 05:51:35;;;;;;;9.10;5.80;;;;;;;-145.41;100.00;58600.66;4994701;28;20042;-77
2023/07/11 05:54:01;;;;;;;8.32;5.43;;;;;;;-145.41;100.00;58600.66;4994751;28;20041;-77
2023/07/11 05:56:26;;;;;;;8.57;6.18;;;;;;;-145.41;100.00;58600.66;4994869;28;20038;-77
2023/07/11 05:58:53;;;;;;;6.85;5.28;;;;;;;-145.41;100.00;58600.66;4993926;28;20104;-77
2023/07/11 06:01:21;;;;;;;8.32;6.82;;;;;;;-145.41;100.00;58600.66;4994317;28;20034;-77
2023/07/11 06:03:56;;;;;;;10.95;7.75;;;;;;;-145.41;100.00;58600.66;4994476;28;20497;-77
2023/07/11 06:06:21;;;;;;;13.95;6.15;;;;;;;-145.41;100.00;58600.66;4994280;28;20030;-78
2023/07/11 06:08:47;;;;;;;9.23;5.32;;;;;;;-145.41;100.00;58600.66;4993636;28;20493;-77
2023/07/11 06:11:12;;;;;;;10.25;6.60;;;;;;;-145.41;100.00;58600.66;4993960;28;20533;-77
2023/07/11 06:13:39;;;;;;;9.02;6.22;;;;;;;-145.41;100.00;58600.66;4993216;28;20050;-77
2023/07/11 06:16:08;;;;;;;10.90;9.02;;;;;;;-145.41;100.00;58600.66;4993803;28;20397;-77
2023/07/11 06:18:36;;;;;;;9.75;8.63;;;;;;;-145.41;100.00;58600.66;4994243;28;20390;-78
2023/07/11 06:21:03;;;;;;;10.27;6.82;;;;;;;-145.41;100.00;58600.66;4990729;28;20033;-75
2023/07/11 06:23:28;;;;;;;8.35;6.80;;;;;;;-145.41;100.00;58600.66;4991286;28;20062;-75
2023/07/11 06:25:54;;;;;;;8.48;5.82;;;;;;;-145.41;100.00;58600.66;4989864;28;20080;-76
2023/07/11 06:28:19;;;;;;;13.27;8.00;;;;;;;-145.41;100.00;58600.66;4993425;28;20045;-75
2023/07/11 06:30:44;;;;;;;9.88;6.80;;;;;;;-145.41;100.00;58600.66;4992550;28;20030;-75
2023/07/11 06:33:12;;;;;;;8.88;6.65;;;;;;;-145.41;100.00;58600.66;4991661;28;20034;-76
2023/07/11 06:35:39;;;;;;;7.93;5.57;;;;;;;-145.41;100.00;58600.66;4993522;28;20121;-75
2023/07/11 06:38:05;;;;;;;8.52;7.07;;;;;;;-145.41;100.00;58600.66;4993384;28;20038;-75
2023/07/11 06:40:30;;;;;;;8.85;6.65;;;;;;;-145.41;100.00;58600.66;4987656;28;20109;-75
2023/07/11 06:42:55;;;;;;;9.00;7.57;;;;;;;-145.41;100.00;58600.66;4991926;28;20113;-75
2023/07/11 06:45:21;;;;;;;9.93;6.65;;;;;;;-145.41;100.00;58600.66;4992406;28;20066;-75
2023/07/11 06:47:46;;;;;;;8.57;6.07;;;;;;;-145.41;100.00;58600.66;4991909;28;20046;-77
2023/07/11 06:50:11;;;;;;;7.80;4.70;;;;;;;-145.41;100.00;58600.66;4992837;28;20030;-77
2023/07/11 06:52:37;;;;;;;9.25;6.75;;;;;;;-145.41;100.00;58600.66;4993647;28;20496;-77
2023/07/11 06:55:03;;;;;;;12.05;8.82;;;;;;;-145.41;100.00;58600.66;4991089;28;20089;-77
2023/07/11 06:57:28;;;;;;;7.47;5.18;;;;;;;-145.41;100.00;58600.66;4993636;28;20030;-77
2023/07/11 06:59:53;;;;;;;9.10;5.35;;;;;;;-145.41;100.00;58600.66;4992027;28;20038;-78
2023/07/11 07:02:18;;;;;;;7.43;4.97;;;;;;;-145.41;100.00;58600.66;4993817;28;20086;-77
2023/07/11 07:04:44;;;;;;;6.18;5.28;;;;;;;-145.41;100.00;58600.66;4993575;28;20042;-77
2023/07/11 07:07:09;;;;;;;7.60;5.82;;;;;;;-145.41;100.00;58600.66;4993367;28;20049;-77
2023/07/11 07:09:34;;;;;;;7.10;5.70;;;;;;;-145.41;100.00;58600.66;4989487;28;20046;-77
2023/07/11 07:12:00;;;;;;;10.45;6.93;;;;;;;-145.41;100.00;58600.66;4989920;28;20038;-77
2023/07/11 07:14:25;;;;;;;12.57;7.97;;;;;;;-145.41;100.00;58600.66;4990212;28;20726;-77
2023/07/11 07:16:50;;;;;;;6.47;5.07;;;;;;;-145.41;100.00;58600.66;4993203;28;20572;-77
2023/07/11 07:19:16;;;;;;;6.30;4.20;;;;;;;-145.41;100.00;58600.66;4992707;28;20497;-77
2023/07/11 07:21:41;;;;;;;6.30;3.90;;;;;;;-145.41;100.00;58600.66;4993546;28;20038;-78
2023/07/11 07:24:07;;;;;;;8.80;6.18;;;;;;;-145.41;100.00;58600.66;4993843;28;20124;-78
2023/07/11 07:26:33;;;;;;;6.57;4.85;;;;;;;-145.41;100.00;58600.66;4993500;28;20061;-78
2023/07/11 07:28:58;;;;;;;8.10;5.47;;;;;;;-145.41;100.00;58600.66;4994494;28;20486;-78
2023/07/11 07:31:24;;;;;;;5.97;4.40;;;;;;;-145.41;100.00;58600.66;4993644;28;20042;-77
2023/07/11 07:33:49;;;;;;;9.07;4.38;;;;;;;-145.41;100.00;58600.66;4992844;28;20069;-77
2023/07/11 07:36:15;;;;;;;6.75;3.65;;;;;;;-145.41;100.00;58600.66;4993247;28;20057;-75
2023/07/11 07:38:40;;;;;;;5.57;3.55;;;;;;;-145.41;100.00;58600.66;4988094;28;20113;-75
2023/07/11 07:41:08;;;;;;;5.78;4.90;;;;;;;-145.41;100.00;58600.66;4983610;28;20037;-75
2023/07/11 07:43:36;;;;;;;6.40;3.65;;;;;;;-145.41;100.00;58600.66;4990579;28;20048;-76
2023/07/11 07:46:02;;;;;;;5.40;3.65;;;;;;;-145.41;100.00;58600.66;4989990;28;20045;-76
2023/07/11 07:48:28;;;;;;;6.30;2.95;;;;;;;-145.41;100.00;58600.66;4991758;28;20117;-75
2023/07/11 07:51:06;;;;;;;6.57;3.72;;;;;;;-145.41;100.00;58600.66;4988254;28;20062;-76
2023/07/11 07:53:31;;;;;;;6.22;3.38;;;;;;;-145.41;100.00;58600.66;4990642;28;20366;-76
2023/07/11 07:56:09;;;;;;;5.88;3.00;;;;;;;-145.41;100.00;58600.66;4991590;28;20066;-76
2023/07/11 07:58:35;;;;;;;4.97;3.13;;;;;;;-145.41;100.00;58600.66;4991236;28;20034;-75
2023/07/11 08:01:03;;;;;;;6.00;3.33;;;;;;;-145.41;100.00;58600.66;4990794;28;20081;-75
2023/07/11 08:03:28;;;;;;;5.05;2.83;;;;;;;-145.41;100.00;58600.66;4991389;28;20081;-76
2023/07/11 08:05:54;;;;;;;4.80;3.13;;;;;;;-145.41;100.00;58600.66;4991861;28;20444;-76
2023/07/11 08:08:21;;;;;;;5.38;2.38;;;;;;;-145.41;100.00;58600.66;4990540;28;20548;-76
2023/07/11 08:10:46;;;;;;;8.88;6.70;;;;;;;-145.41;100.00;58600.66;4990614;28;20026;-76
2023/07/11 08:13:11;;;;;;;7.80;5.10;;;;;;;-145.41;100.00;58600.66;4989229;28;20400;-76
2023/07/11 08:15:37;;;;;;;4.53;2.60;;;;;;;-145.41;100.00;58600.66;4988598;28;20595;-76
2023/07/11 08:18:02;;;;;;;4.22;1.90;;;;;;;-145.41;100.00;58600.66;4989722;28;20076;-75
2023/07/11 08:20:28;;;;;;;4.38;2.22;;;;;;;-145.41;100.00;58600.66;4986196;28;20042;-76
2023/07/11 08:22:54;;;;;;;4.65;2.40;;;;;;;-145.41;100.00;58600.66;5021646;22;20041;-77
2023/07/11 08:25:20;;;;;;;4.22;2.08;;;;;;;-145.41;100.00;58600.66;5009458;28;20069;-77
2023/07/11 08:27:45;;;;;;;4.95;2.00;;;;;;;-145.41;100.00;58600.66;5010705;28;20054;-77
2023/07/11 08:30:10;;;;;;;2.88;1.60;;;;;;;-145.41;100.00;58600.66;5010276;28;20092;-77
2023/07/11 08:32:38;;;;;;;3.85;1.70;;;;;;;-145.41;100.00;58600.66;5010031;28;20553;-77
2023/07/11 08:35:04;;;;;;;7.22;3.80;;;;;;;-145.41;100.00;58600.66;5007418;28;20029;-77
2023/07/11 08:37:30;;;;;;;6.38;4.00;;;;;;;-145.41;100.00;58600.66;5008869;28;20030;-77
2023/07/11 08:39:55;;;;;;;4.40;2.53;;;;;;;-145.41;100.00;58600.66;5010127;28;20100;-76
2023/07/11 08:42:29;;;;;;;5.18;2.25;;;;;;;-145.41;100.00;58600.66;5010664;28;20436;-77
2023/07/11 08:45:04;;;;;;;7.20;3.30;;;;;;;-145.41;100.00;58600.66;5009555;28;20034;-77
2023/07/11 08:47:36;;;;;;;4.35;1.98;;;;;;;-145.41;100.00;58600.66;5010610;28;20400;-77
2023/07/11 08:50:23;;;;;;;4.32;2.50;;;;;;;-145.41;100.00;58600.66;5009775;28;20045;-77
2023/07/11 08:52:53;;;;;;;4.13;1.75;;;;;;;-145.41;100.00;58600.66;5009572;28;20045;-77
2023/07/11 08:55:27;;;;;;;5.93;2.40;;;;;;;-145.41;100.00;58600.66;5010658;28;20034;-77
2023/07/11 08:58:10;;;;;;;5.90;2.67;;;;;;;-145.41;100.00;58600.66;5010680;28;20165;-77
2023/07/11 09:00:36;;;;;;;4.90;2.33;;;;;;;-145.41;100.00;58600.66;5010041;28;20029;-77
2023/07/11 09:03:13;;;;;;;3.28;1.80;;;;;;;-145.41;100.00;58600.66;5010470;28;20029;-77
2023/07/11 09:05:43;;;;;;;5.15;1.90;;;;;;;-145.41;100.00;58600.66;5010649;28;20056;-77
2023/07/11 09:08:15;;;;;;;7.97;4.05;;;;;;;-145.41;100.00;58600.66;5006697;28;20039;-77
2023/07/11 09:11:06;;;;;;;5.38;1.92;;;;;;;-145.41;100.00;58600.66;5013736;28;20119;-77
2023/07/11 09:13:56;;;;;;;5.25;1.65;;;;;;;-145.41;100.00;58600.66;5013400;28;20040;-76
2023/07/11 09:16:35;;;;;;;3.72;1.65;;;;;;;-145.41;100.00;58600.66;5014395;28;20041;-77
2023/07/11 09:19:12;;;;;;;5.20;2.65;;;;;;;-145.41;100.00;58600.66;5012239;28;20057;-77
2023/07/11 09:21:58;;;;;;;4.18;2.40;;;;;;;-145.41;100.00;58600.66;5013734;28;20660;-77
2023/07/11 09:24:51;;;;;;;6.38;3.72;;;;;;;-145.41;100.00;58600.66;5012867;28;20038;-77
2023/07/11 09:27:23;;;;;;;3.97;2.05;;;;;;;-145.41;100.00;58600.66;5014212;28;20116;-77
2023/07/11 09:29:49;;;;;;;5.65;2.35;;;;;;;-145.41;100.00;58600.66;5011136;28;20096;-77
2023/07/11 09:32:17;;;;;;;3.88;1.88;;;;;;;-145.41;100.00;58600.66;5013220;28;20034;-77
2023/07/11 09:34:45;;;;;;;4.72;2.20;;;;;;;-145.41;100.00;58600.66;5011653;28;20030;-77
2023/07/11 09:37:25;;;;;;;4.28;2.03;;;;;;;-145.41;100.00;58600.66;5010940;28;20088;-77
2023/07/11 09:40:17;;;;;;;6.20;1.92;;;;;;;-145.41;100.00;58600.66;5013325;28;20053;-77
2023/07/11 09:42:48;;;;;;;5.88;2.00;;;;;;;-145.41;100.00;58600.66;5009633;28;20045;-77
2023/07/11 09:45:27;;;;;;;3.37;1.90;;;;;;;-145.41;100.00;58600.66;5013447;28;20040;-77
2023/07/11 09:48:18;;;;;;;3.65;2.10;;;;;;;-145.41;100.00;58600.66;5009669;28;20296;-77
2023/07/11 09:50:55;;;;;;;4.70;1.83;;;;;;;-145.41;100.00;58600.66;5010196;28;20049;-77
2023/07/11 09:53:23;;;;;;;4.20;2.70;;;;;;;-145.41;100.00;58600.66;5012821;28;20405;-77
2023/07/11 09:56:03;;;;;;;5.85;3.83;;;;;;;-145.41;100.00;58600.66;5013581;28;20029;-77
2023/07/11 09:58:33;;;;;;;4.07;1.95;;;;;;;-145.41;100.00;58600.66;5013330;28;20041;-77
2023/07/11 10:01:06;;;;;;;4.43;2.25;;;;;;;-145.41;100.00;58600.66;5012894;28;20034;-77
2023/07/11 10:03:36;;;;;;;5.20;1.50;;;;;;;-145.41;100.00;58600.66;5012055;28;20049;-77
2023/07/11 10:06:03;;;;;;;3.00;1.27;;;;;;;-145.41;100.00;58600.66;5009089;28;20563;-77
2023/07/11 10:08:45;;;;;;;4.78;1.70;;;;;;;-145.41;100.00;58600.66;5010052;28;20041;-77
2023/07/11 10:11:13;;;;;;;4.05;1.90;;;;;;;-145.41;100.00;58600.66;5011386;28;20092;-76
2023/07/11 10:13:40;;;;;;;4.40;2.55;;;;;;;-145.41;100.00;58600.66;5007600;28;20038;-76
2023/07/11 10:16:06;;;;;;;3.53;1.48;;;;;;;-145.41;100.00;58600.66;5018976;28;20033;-77
2023/07/11 10:18:35;;;;;;;4.30;1.70;;;;;;;-145.41;100.00;58600.66;5012152;28;20038;-77
2023/07/11 10:21:24;;;;;;;3.55;1.70;;;;;;;-145.41;100.00;58600.66;5009024;28;20489;-77
2023/07/11 10:23:52;;;;;;;4.70;2.00;;;;;;;-145.41;100.00;58600.66;5024243;28;20038;-77
2023/07/11 10:26:23;;;;;;;6.10;3.38;;;;;;;-145.41;100.00;58600.66;5010158;28;20029;-77
2023/07/11 10:28:56;;;;;;;5.45;2.38;;;;;;;-145.41;100.00;58600.66;5011527;28;20496;-77
2023/07/11 10:31:27;;;;;;;4.75;3.10;;;;;;;-145.41;100.00;58600.66;5011304;28;20539;-77
2023/07/11 10:34:02;;;;;;;3.35;1.80;;;;;;;-145.41;100.00;58600.66;5012351;28;20038;-77
2023/07/11 10:36:33;;;;;;;2.75;1.25;;;;;;;-145.41;100.00;58600.66;5011675;28;20419;-77
2023/07/11 10:39:03;;;;;;;4.38;2.58;;;;;;;-145.41;100.00;58600.66;5011955;28;20096;-77
2023/07/11 10:41:43;;;;;;;4.93;3.00;;;;;;;-145.41;100.00;58600.66;5012787;28;20049;-77
2023/07/11 10:44:19;;;;;;;4.95;2.03;;;;;;;-145.41;100.00;58600.66;5012838;28;20088;-77
2023/07/11 10:46:50;;;;;;;5.05;3.03;;;;;;;-145.41;100.00;58600.66;5010425;28;20515;-77
2023/07/11 10:49:20;;;;;;;6.85;2.33;;;;;;;-145.41;100.00;58600.66;5009283;28;20428;-76
2023/07/11 10:51:55;;;;;;;3.40;1.63;;;;;;;-145.41;100.00;58600.66;5007026;28;20045;-77
2023/07/11 10:54:35;;;;;;;3.83;1.67;;;;;;;-145.41;100.00;58600.66;5010013;28;20034;-76
2023/07/11 10:57:08;;;;;;;3.30;1.42;;;;;;;-145.41;100.00;58600.66;5009948;28;20208;-77
2023/07/11 10:59:33;;;;;;;3.58;1.33;;;;;;;-145.41;100.00;58600.66;5011644;28;20040;-77
2023/07/11 11:02:14;;;;;;;4.40;1.70;;;;;;;-145.41;100.00;58600.66;5009601;28;20041;-75
2023/07/11 11:04:58;;;;;;;4.55;3.33;;;;;;;-145.41;100.00;58600.66;5010711;28;20128;-75
2023/07/11 11:07:43;;;;;;;4.38;1.92;;;;;;;-145.41;100.00;58600.66;5010810;28;20436;-75
2023/07/11 11:10:37;;;;;;;4.57;1.80;;;;;;;-145.41;100.00;58600.66;5003871;28;20455;-75
2023/07/11 11:13:10;;;;;;;3.13;1.58;;;;;;;-145.41;100.00;58600.66;5010006;28;20096;-75